Latest Coastal Weather Observations for East Sale Airport

IDV60701

Issued at 8:42 pm EDT Thursday 21 October 2021 (issued every 10 minutes, with the page automatically refreshed every 10 minutes)

About coastal observations | Map of coastal stations | Coastal observations for VIC | Marine services | Other Formats
Station Details ID: 085314 Name: EAST SALE AIRPORT Lat: -38.10 Lon: 147.14 Height: 5.3 m
Data from the previous 72 hours. | See also: Recent months at East Sale Airport
Date/Time
EDT
Wind Sea
Height
m
Swell Vis
km
Cloud Weather Temp
°C
Press
MSL
hPa
Rain since
9am
mm
Dir  Spd
kts
Gust
kts
Height
m
Period
s
Dir
21/08:30pm E 7 8 - - - - 10 Clear - 15.9 1015.0 0.0
21/08:00pm ESE 8 9 - - - - 10 - - 16.0 1014.8 0.0
21/07:30pm E 9 10 - - - - 10 - - 16.7 1014.7 0.0
21/07:00pm E 10 12 - - - - 10 - - 17.5 1014.5 0.0
21/06:30pm E 12 16 - - - - 10 - - 18.4 1014.1 0.0
21/06:00pm E 12 16 - - - - 10 Partly cloudy - 18.7 1014.0 0.0
21/05:30pm E 13 15 - - - - 10 - - 19.3 1013.8 0.0
21/05:00pm E 15 17 - - - - 10 - - 20.0 1013.7 0.0
21/04:30pm E 15 18 - - - - 10 - - 20.6 1013.9 0.0
21/04:00pm E 14 17 - - - - 10 - - 19.9 1014.1 0.0
21/03:30pm E 12 14 - - - - 10 - - 19.6 1014.2 0.0
21/03:00pm E 13 16 - - - - 10 Mostly cloudy - 19.9 1014.4 0.0
21/02:30pm E 11 13 - - - - 10 - - 19.7 1014.8 0.0
21/02:00pm ESE 9 11 - - - - 10 - - 19.3 1015.3 0.0
21/01:30pm E 9 11 - - - - 10 - - 19.0 1015.3 0.0
21/01:00pm E 9 11 - - - - 10 - - 18.9 1015.5 0.0
21/12:30pm ENE 7 10 - - - - 10 - - 18.3 1015.9 0.0
21/12:00pm ESE 6 8 - - - - 10 - - 17.8 1016.2 0.0
21/11:30am E 5 8 - - - - 10 - - 17.7 1016.6 0.0
21/11:00am SE 3 5 - - - - 10 - - 17.1 1016.9 0.0
21/10:30am E 3 5 - - - - 10 Mostly clear - 16.2 1017.2 0.0
21/10:00am NNE 4 5 - - - - 10 Partly cloudy - 15.3 1017.4 0.0
21/09:30am N 3 6 - - - - 10 Mostly cloudy - 14.3 1017.4 0.0
21/09:00am NE 3 6 - - - - 10 Mostly cloudy - 14.5 1017.3 0.2
21/08:30am N 3 5 - - - - 10 Partly cloudy Fog patches 12.8 1017.5 0.2
21/08:00am NNW 3 4 - - - - 10 Partly cloudy - 12.5 1017.6 0.2
21/07:30am NW 2 4 - - - - 10 Partly cloudy Fog patches 11.4 1017.6 0.2
21/07:00am NW 4 5 - - - - 0.3 Cloudy - 9.9 1017.5 0.2
21/06:49am NW 5 6 - - - - 0.5 Cloudy Fog 9.2 1017.4 0.2
21/06:30am NW 5 6 - - - - 0.2 Cloudy - 9.0 1017.2 0.2
21/06:00am NW 6 8 - - - - 0.3 Mostly cloudy Rain 8.8 1017.0 0.2
21/05:58am NNW 6 8 - - - - 0.3 Partly cloudy - 8.7 1017.0 0.2
21/05:47am N 5 6 - - - - 0.3 Partly cloudy - 8.4 1016.7 0.2
21/05:39am N 4 5 - - - - 0.7 Partly cloudy - 8.4 1016.8 0.2
21/05:35am N 4 5 - - - - 5 Partly cloudy - 8.5 1016.8 0.2
21/05:30am N 4 5 - - - - 10 Partly cloudy - 8.8 1016.8 0.2
21/05:00am E 6 6 - - - - 10 - - 10.2 1016.9 0.2
21/04:30am E 7 8 - - - - 10 - - 10.2 1017.0 0.2
21/04:00am ESE 6 6 - - - - 10 - - 9.8 1017.1 0.2
21/03:30am ESE 5 6 - - - - 10 - - 10.2 1017.0 0.2
21/03:00am ENE 4 5 - - - - 10 - - 11.4 1017.3 0.2
21/02:30am NNE 4 6 - - - - 10 - - 12.0 1017.7 0.2
21/02:00am ENE 7 9 - - - - 10 - - 12.2 1018.0 0.2
21/01:30am ENE 5 7 - - - - 10 - - 12.3 1018.4 0.2
21/01:00am ENE 8 11 - - - - 10 Partly cloudy - 13.1 1018.7 0.2
21/12:55am ENE 9 12 - - - - 10 Partly cloudy - 13.2 1018.7 0.2
21/12:30am ENE 10 13 - - - - 10 Cloudy - 13.7 1019.0 0.2
21/12:00am ENE 10 14 - - - - 10 Cloudy - 14.3 1019.5 0.2
 
Date/Time
EDT
Wind Sea
Height
m
Swell Vis
km
Cloud Weather Temp
°C
Press
MSL
hPa
Rain since
9am
mm
Dir  Spd
kts
Gust
kts
Height
m
Period
s
Dir
20/11:30pm ENE 13 16 - - - - 10 Cloudy - 14.2 1019.7 0.2
20/11:00pm ENE 13 18 - - - - 10 Cloudy - 14.2 1020.0 0.2
20/10:30pm ENE 17 23 - - - - 10 Cloudy - 14.5 1020.4 0.2
20/10:00pm E 19 27 - - - - 10 Cloudy - 15.0 1020.5 0.2
20/09:30pm E 17 24 - - - - 10 Mostly cloudy - 15.0 1020.6 0.2
20/09:00pm E 17 23 - - - - 10 Mostly cloudy - 14.8 1020.4 0.2
20/08:30pm E 18 24 - - - - 10 Partly cloudy - 14.6 1020.1 0.2
20/08:00pm E 21 28 - - - - 10 Mostly cloudy - 14.8 1019.7 0.2
20/07:30pm E 18 23 - - - - 10 Mostly cloudy - 14.8 1019.4 0.2
20/07:00pm E 19 24 - - - - 10 Mostly cloudy - 15.1 1019.5 0.2
20/06:30pm E 19 24 - - - - 10 Cloudy - 15.4 1019.6 0.2
20/06:10pm E 21 28 - - - - 10 Partly cloudy - 15.6 1019.5 0.2
20/06:00pm E 22 26 - - - - 10 Mostly clear - 15.8 1019.4 0.2
20/05:30pm E 21 27 - - - - 10 Partly cloudy - 16.4 1019.5 0.2
20/05:00pm E 21 28 - - - - 10 Partly cloudy - 16.6 1019.7 0.2
20/04:30pm E 22 27 - - - - 10 Partly cloudy - 17.1 1019.9 0.2
20/04:00pm E 21 27 - - - - 10 Partly cloudy - 17.4 1020.3 0.2
20/03:30pm E 21 26 - - - - 10 Partly cloudy - 17.4 1020.7 0.2
20/03:00pm E 21 25 - - - - 10 Partly cloudy - 17.6 1021.1 0.2
20/02:30pm E 20 25 - - - - 10 Partly cloudy - 17.9 1021.4 0.2
20/02:00pm E 19 23 - - - - 10 Partly cloudy - 17.8 1021.7 0.2
20/01:30pm E 18 23 - - - - 10 Partly cloudy - 17.4 1021.8 0.2
20/01:00pm E 19 23 - - - - 10 Partly cloudy - 17.6 1022.1 0.2
20/12:30pm E 19 23 - - - - 10 Partly cloudy - 17.5 1022.4 0.2
20/12:00pm E 18 23 - - - - 10 Partly cloudy - 17.0 1022.9 0.0
20/11:30am E 16 21 - - - - 10 Partly cloudy - 17.6 1023.4 0.0
20/11:00am E 15 19 - - - - 10 Partly cloudy - 16.8 1023.6 0.0
20/10:30am E 15 19 - - - - 10 Partly cloudy - 17.3 1024.0 0.0
20/10:00am E 14 17 - - - - 10 Partly cloudy - 15.7 1024.3 0.0
20/09:30am E 15 19 - - - - 10 Partly cloudy - 15.8 1024.2 0.0
20/09:00am E 15 18 - - - - 10 Cloudy - 14.6 1024.1 1.4
20/08:30am E 14 18 - - - - 10 Partly cloudy - 14.2 1024.3 1.4
20/08:00am ESE 12 14 - - - - 10 Partly cloudy - 13.7 1024.8 1.4
20/07:30am ESE 10 13 - - - - 10 Partly cloudy - 13.4 1024.6 1.4
20/07:00am ESE 10 15 - - - - 10 Partly cloudy - 13.0 1024.5 1.4
20/06:30am ESE 9 11 - - - - 10 Partly cloudy - 12.3 1024.3 1.4
20/06:00am ESE 11 14 - - - - 10 Cloudy - 12.8 1024.0 1.4
20/05:30am ESE 7 11 - - - - 10 Partly cloudy - 12.6 1024.1 1.4
20/05:00am ESE 7 9 - - - - 10 Partly cloudy - 12.6 1024.0 1.4
20/04:30am SE 9 13 - - - - 10 Partly cloudy - 12.8 1024.1 1.4
20/04:00am ESE 9 12 - - - - 10 Partly cloudy - 12.6 1024.0 1.4
20/03:30am SE 9 13 - - - - 10 Cloudy - 12.4 1024.1 1.4
20/03:00am SE 11 14 - - - - 10 Cloudy - 12.5 1024.5 1.4
20/02:30am SE 11 15 - - - - 10 Partly cloudy - 12.9 1024.2 1.4
20/02:00am SE 10 11 - - - - 10 Partly cloudy - 12.7 1024.7 1.4
20/01:30am SE 12 16 - - - - 10 Partly cloudy - 12.3 1025.0 1.4
20/01:00am SSE 9 11 - - - - 10 Partly cloudy - 12.8 1025.3 1.4
20/12:30am SSE 8 10 - - - - 10 Partly cloudy - 12.9 1025.5 1.4
20/12:00am SE 9 11 - - - - 10 Cloudy - 12.7 1025.2 1.4
 
Date/Time
EDT
Wind Sea
Height
m
Swell Vis
km
Cloud Weather Temp
°C
Press
MSL
hPa
Rain since
9am
mm
Dir  Spd
kts
Gust
kts
Height
m
Period
s
Dir
19/11:30pm SE 11 14 - - - - 10 Partly cloudy - 13.1 1024.9 1.4
19/11:03pm SE 11 16 - - - - 10 Partly cloudy - 13.1 1024.5 1.4
19/11:00pm SE 12 16 - - - - 10 Partly cloudy - 13.1 1024.5 1.4
19/10:36pm SE 10 13 - - - - 10 Partly cloudy - 12.9 1024.4 1.4
19/10:30pm SE 11 14 - - - - 10 Partly cloudy - 12.9 1024.3 1.4
19/10:21pm SE 11 15 - - - - 10 Partly cloudy - 12.8 1024.4 1.4
19/10:05pm SE 12 16 - - - - 10 Partly cloudy - 12.7 1024.4 1.4
19/10:00pm SE 13 18 - - - - 10 Partly cloudy - 12.6 1024.4 1.4
19/09:33pm SE 13 17 - - - - 10 Partly cloudy - 12.5 1024.4 1.4
19/09:30pm SE 13 17 - - - - 10 Partly cloudy - 12.5 1024.5 1.4
19/09:14pm SE 12 17 - - - - 10 Partly cloudy - 12.8 1024.7 1.4
19/09:00pm SE 12 15 - - - - 10 Cloudy - 12.6 1024.4 1.4
19/08:50pm SE 12 15 - - - - 10 Partly cloudy - 12.6 1024.4 1.4
19/08:35pm SE 13 17 - - - - 10 Partly cloudy - 12.7 1024.2 1.4
19/08:30pm SE 14 20 - - - - 10 Partly cloudy - 12.8 1024.1 1.4
19/08:12pm SE 14 22 - - - - 10 Partly cloudy - 12.9 1023.9 1.4
19/08:02pm SE 12 16 - - - - 6 Partly cloudy - 12.7 1023.7 1.4
19/08:00pm SE 13 19 - - - - 7 Partly cloudy - 12.7 1023.7 1.4
19/07:53pm SE 13 20 - - - - 10 Partly cloudy - 12.8 1023.7 1.2
19/07:43pm SE 12 19 - - - - 10 Partly cloudy - 12.9 1023.6 1.2
19/07:30pm ESE 9 15 - - - - 10 Partly cloudy - 12.7 1023.5 1.2
19/07:27pm ESE 9 11 - - - - 10 Partly cloudy - 12.7 1023.6 1.2
19/07:00pm SE 10 14 - - - - 5 Partly cloudy - 12.7 1023.5 1.2
19/06:49pm SE 13 18 - - - - 6 Partly cloudy - 12.8 1023.6 1.2
19/06:30pm SE 14 17 - - - - 10 Partly cloudy - 13.3 1023.4 1.2
19/06:00pm ESE 15 20 - - - - 10 Cloudy - 14.1 1023.1 1.2
19/05:30pm ESE 15 21 - - - - 10 Partly cloudy - 13.8 1022.7 1.2
19/05:00pm SE 14 18 - - - - 10 Partly cloudy - 15.7 1022.4 1.2
19/04:30pm SE 14 17 - - - - 10 Partly cloudy - 15.5 1022.2 1.2
19/04:00pm SSE 14 21 - - - - 10 Partly cloudy - 16.0 1021.8 1.2
19/03:30pm SE 15 19 - - - - 10 Partly cloudy - 16.1 1021.9 1.2
19/03:00pm SE 15 19 - - - - 10 Mostly clear - 16.7 1021.8 1.2
19/02:30pm SE 12 16 - - - - 10 Partly cloudy - 16.2 1021.5 1.2
19/02:00pm ESE 10 15 - - - - 10 Partly cloudy - 14.5 1021.3 1.2
19/01:30pm SSE 8 11 - - - - 10 Mostly clear - 15.3 1021.0 1.2
19/01:00pm S 8 11 - - - - 10 Partly cloudy - 13.8 1020.9 1.2
19/12:30pm S 12 16 - - - - 10 Mostly clear Showers 14.5 1020.9 1.2
19/12:00pm SSW 11 18 - - - - 10 Cloudy Showers 13.2 1020.9 1.0
19/11:30am S 9 13 - - - - 10 Mostly clear Showers 14.1 1021.0 1.0
19/11:12am SSW 8 11 - - - - 10 Partly cloudy Showers 13.0 1021.2 1.0
19/11:00am SSW 10 15 - - - - 5 Mostly clear - 12.7 1021.2 0.8
19/10:51am WSW 10 15 - - - - 5 Mostly clear Showers 12.5 1021.1 0.4
19/10:30am W 9 14 - - - - 10 Mostly clear Showers 13.5 1020.8 0.0
19/10:00am W 10 14 - - - - 10 Mostly clear - 12.8 1020.9 0.0
19/09:30am W 12 16 - - - - 10 Partly cloudy - 12.7 1020.7 0.0
19/09:00am W 11 15 - - - - 10 Partly cloudy - 12.2 1020.5 2.0
19/08:30am WNW 9 13 - - - - 10 Mostly clear - 11.4 1020.2 2.0
19/08:00am WNW 9 11 - - - - 10 - - 10.5 1020.0 2.0
19/07:30am WNW 8 10 - - - - 10 - - 9.2 1019.6 2.0
19/07:00am WNW 6 8 - - - - 10 Mostly clear - 8.2 1019.5 2.0
19/06:30am WNW 6 8 - - - - 10 - - 8.0 1019.1 2.0
19/06:00am WNW 7 9 - - - - 10 Mostly clear - 8.3 1018.8 2.0
19/05:30am W 6 8 - - - - 10 - - 8.7 1018.5 2.0
19/05:00am W 8 10 - - - - 10 - - 9.0 1018.0 2.0
19/04:30am WNW 7 10 - - - - 10 Partly cloudy - 9.3 1017.9 2.0
19/04:00am W 6 8 - - - - 10 Partly cloudy - 9.2 1017.8 2.0
19/03:30am W 7 10 - - - - 10 Cloudy - 10.0 1017.7 2.0
19/03:00am WSW 6 9 - - - - 10 Mostly cloudy - 9.9 1017.7 2.0
19/02:30am W 7 9 - - - - 10 Cloudy - 10.3 1017.8 2.0
19/02:00am W 5 7 - - - - 10 Cloudy - 10.1 1017.9 2.0
19/01:30am W 6 7 - - - - 10 Partly cloudy - 10.0 1017.7 2.0
19/01:00am WNW 4 6 - - - - 10 Partly cloudy - 9.6 1017.7 2.0
19/12:30am W 6 7 - - - - 10 Partly cloudy - 10.0 1017.5 2.0
19/12:00am WNW 5 7 - - - - 10 Mostly cloudy - 10.3 1017.6 1.8
 
Date/Time
EDT
Wind Sea
Height
m
Swell Vis
km
Cloud Weather Temp
°C
Press
MSL
hPa
Rain since
9am
mm
Dir  Spd
kts
Gust
kts
Height
m
Period
s
Dir
18/11:30pm NNW 5 7 - - - - 10 Partly cloudy - 10.7 1017.6 1.8
18/11:00pm WSW 7 10 - - - - 10 Partly cloudy - 11.1 1017.2 1.8
18/10:30pm WSW 5 7 - - - - 10 Partly cloudy - 10.8 1016.7 1.8
18/10:00pm WSW 5 7 - - - - 10 Cloudy - 11.0 1016.7 1.8
18/09:30pm W 3 6 - - - - 10 Partly cloudy - 10.9 1016.4 1.8
18/09:00pm WSW 8 12 - - - - 10 Mostly cloudy Showers 11.3 1016.1 0.6

Other formats

Comma delimited format used in spreadsheet applications
http://www.bom.gov.au/fwo/IDV60701/IDV60701.95907.axf

JavaScript Object Notation format (JSON) in row-major order
http://www.bom.gov.au/fwo/IDV60701/IDV60701.95907.json

Data quality

Most of these data are generated automatically and are frequently updated. Quality checks on data are not normally performed. It is possible for incorrect values to appear. Refer to information at About Latest Weather Observations and please check the disclaimer before using these data.